Clarksville, Indiana
Current Conditions -  °F | °C
As of 8:02 AM on Friday 31 Oct 2014 (Local Time) from KLOU Reporting Station
Overcast Overcast  
Wind Chill: 46°   Ceiling: 2800
Heat Index: 46°   Visibility: 9mi
Dew Point: 44°   Wind: 3mph
Humidity: 93%   Direction: 320°NW
Pressure: 30.01"   Gusts: NA
Location:  38.29°N, 85.76°W
Report Text: KLOU 311202Z 32003KT 9SM OVC028 08/07 A3001 RMK AO2 T00780067
Loading
Personal Weather Stations






























Interactive Weather Map
Tropical Storm Tracking
New forecast layout! Learn more

10-Day Weather Forecast

Advertisements
Track Severe Weather on mobile